createdAt,value
2022-09-20T00:01:21.709Z,2.73
2022-09-20T00:08:00.857Z,2.72
2022-09-20T00:13:06.864Z,2.72
2022-09-20T00:18:15.240Z,2.72
2022-09-20T00:23:23.381Z,2.72
2022-09-20T00:28:30.912Z,2.72
2022-09-20T00:33:39.465Z,2.73
2022-09-20T00:38:46.664Z,2.73
2022-09-20T00:43:54.549Z,2.72
2022-09-20T00:49:01.752Z,2.72
2022-09-20T00:54:10.577Z,2.73
2022-09-20T00:59:18.325Z,2.72
2022-09-20T01:04:25.802Z,2.72
2022-09-20T01:09:33.152Z,2.73
2022-09-20T01:14:40.930Z,2.73
2022-09-20T01:19:48.102Z,2.72
2022-09-20T01:24:56.366Z,2.74
2022-09-20T01:30:03.148Z,2.72
2022-09-20T01:35:10.911Z,2.73
2022-09-20T01:40:18.271Z,2.72
2022-09-20T01:45:26.233Z,2.73
2022-09-20T01:50:34.084Z,2.73
2022-09-20T01:55:41.701Z,2.74
2022-09-20T02:00:49.931Z,2.73
2022-09-20T02:05:58.002Z,2.72
2022-09-20T02:11:05.707Z,2.73
2022-09-20T02:16:14.709Z,2.73
2022-09-20T02:21:22.143Z,2.74
2022-09-20T02:26:30.459Z,2.72
2022-09-20T02:31:40.223Z,2.72
2022-09-20T02:36:48.653Z,2.73
2022-09-20T02:41:56.916Z,2.73
2022-09-20T02:47:03.949Z,2.73
2022-09-20T02:52:13.497Z,2.73
2022-09-20T02:57:20.827Z,2.72
2022-09-20T03:02:28.103Z,2.73
2022-09-20T03:07:35.441Z,2.72
2022-09-20T03:12:44.151Z,2.73
2022-09-20T03:17:53.016Z,2.73
2022-09-20T03:23:01.172Z,2.73
2022-09-20T03:28:08.582Z,2.73
2022-09-20T03:33:16.486Z,2.72
2022-09-20T03:38:22.977Z,2.73
2022-09-20T03:43:30.832Z,2.72
2022-09-20T03:48:38.192Z,2.73
2022-09-20T03:53:45.860Z,2.72
2022-09-20T03:58:53.779Z,2.73
2022-09-20T04:04:01.656Z,2.72
2022-09-20T04:09:08.938Z,2.73
2022-09-20T04:14:17.252Z,2.72
2022-09-20T04:19:24.476Z,2.73
2022-09-20T04:24:31.851Z,2.73
2022-09-20T04:29:40.699Z,2.73
2022-09-20T04:34:49.745Z,2.73
2022-09-20T04:39:57.567Z,2.72
2022-09-20T04:45:06.275Z,2.73
2022-09-20T04:50:14.868Z,2.72
2022-09-20T04:55:21.860Z,2.73
2022-09-20T05:00:29.053Z,2.73
2022-09-20T05:05:36.261Z,2.73
2022-09-20T05:10:44.494Z,2.74
2022-09-20T05:15:52.500Z,2.74
2022-09-20T05:21:03.126Z,2.74
2022-09-20T05:26:11.346Z,2.75
2022-09-20T05:31:19.189Z,2.74
2022-09-20T05:36:27.174Z,2.73
2022-09-20T05:41:35.886Z,2.74
2022-09-20T05:46:44.355Z,2.74
2022-09-20T05:51:51.888Z,2.74
2022-09-20T05:57:00.993Z,2.74
2022-09-20T06:02:08.588Z,2.74
2022-09-20T06:07:18.536Z,2.75
2022-09-20T06:12:31.672Z,2.74
2022-09-20T06:17:39.974Z,2.75
2022-09-20T06:22:47.300Z,2.75
2022-09-20T06:27:55.346Z,2.74
2022-09-20T06:33:03.231Z,2.75
2022-09-20T06:38:11.690Z,2.75
2022-09-20T06:43:19.843Z,2.76
2022-09-20T06:48:28.216Z,2.74
2022-09-20T06:53:35.658Z,2.75
2022-09-20T06:58:44.052Z,2.75
2022-09-20T07:03:51.957Z,2.76
2022-09-20T07:08:58.829Z,2.75
2022-09-20T07:14:07.559Z,2.75
2022-09-20T07:19:14.838Z,2.76
2022-09-20T07:24:23.114Z,2.76
2022-09-20T07:29:30.558Z,2.76
2022-09-20T07:34:38.664Z,2.76
2022-09-20T07:39:46.683Z,2.77
2022-09-20T07:44:54.796Z,2.76
2022-09-20T07:50:02.004Z,2.77
2022-09-20T07:55:09.116Z,2.77
2022-09-20T08:00:16.981Z,2.77
2022-09-20T08:05:26.147Z,2.78
2022-09-20T08:10:33.265Z,2.8
2022-09-20T08:15:41.639Z,2.8
2022-09-20T08:20:49.150Z,2.78
2022-09-20T08:25:56.107Z,2.78
2022-09-20T08:31:10.036Z,2.78
2022-09-20T08:36:16.903Z,2.78
2022-09-20T08:41:25.244Z,2.77
2022-09-20T08:46:32.571Z,2.77
2022-09-20T08:51:40.908Z,2.77
2022-09-20T08:56:47.669Z,2.78
2022-09-20T09:01:56.815Z,2.79
2022-09-20T09:07:04.594Z,2.8
2022-09-20T09:12:11.428Z,2.8
2022-09-20T09:17:18.596Z,2.8
2022-09-20T09:22:26.188Z,2.79
2022-09-20T09:32:44.552Z,2.8
2022-09-20T09:37:52.421Z,2.8
2022-09-20T09:43:03.102Z,2.81
2022-09-20T09:48:10.613Z,2.8
2022-09-20T09:53:18.776Z,2.8
2022-09-20T09:58:27.015Z,2.8
2022-09-20T10:03:33.975Z,2.8
2022-09-20T10:08:42.374Z,2.8
2022-09-20T10:13:49.077Z,2.8
2022-09-20T10:18:56.247Z,2.8
2022-09-20T10:24:04.044Z,2.79
2022-09-20T10:29:11.296Z,2.79
2022-09-20T10:34:19.140Z,2.78
2022-09-20T10:39:26.417Z,2.78
2022-09-20T10:44:34.218Z,2.78
2022-09-20T10:49:41.414Z,2.77
2022-09-20T10:54:49.866Z,2.79
2022-09-20T10:59:57.060Z,2.8
2022-09-20T11:05:04.183Z,2.8
2022-09-20T11:10:11.808Z,2.8
2022-09-20T11:15:21.084Z,2.81
2022-09-20T11:20:27.175Z,2.81
2022-09-20T11:25:36.142Z,2.81
2022-09-20T11:30:43.448Z,2.8
2022-09-20T11:35:50.624Z,2.8
2022-09-20T11:40:58.329Z,2.79
2022-09-20T11:46:06.319Z,2.78
2022-09-20T11:51:15.320Z,2.78
2022-09-20T11:56:21.876Z,2.77
2022-09-20T12:01:29.328Z,2.77
2022-09-20T12:06:36.410Z,2.77
2022-09-20T12:11:44.392Z,2.77
2022-09-20T12:16:50.816Z,2.77
2022-09-20T12:21:59.162Z,2.77
2022-09-20T12:27:06.001Z,2.77
2022-09-20T12:32:14.254Z,2.78
2022-09-20T12:37:21.536Z,2.77
2022-09-20T12:42:28.736Z,2.78
2022-09-20T12:47:35.902Z,2.78
2022-09-20T12:52:44.245Z,2.77
2022-09-20T12:57:52.011Z,2.77
2022-09-20T13:02:58.862Z,2.78
2022-09-20T13:08:05.385Z,2.77
2022-09-20T13:13:12.759Z,2.78
2022-09-20T13:18:20.463Z,2.77
2022-09-20T13:23:27.666Z,2.77
2022-09-20T13:28:36.487Z,2.77
2022-09-20T13:33:44.450Z,2.77
2022-09-20T13:38:51.781Z,2.77
2022-09-20T13:44:00.151Z,2.76
2022-09-20T13:49:07.504Z,2.77
2022-09-20T13:54:16.049Z,2.76
2022-09-20T13:59:23.185Z,2.76
2022-09-20T14:04:31.029Z,2.77
2022-09-20T14:09:38.232Z,2.8
2022-09-20T14:14:46.516Z,2.8
2022-09-20T14:19:53.215Z,2.8
2022-09-20T14:25:00.418Z,2.8
2022-09-20T14:30:07.616Z,2.8
2022-09-20T14:35:56.445Z,2.8
2022-09-20T14:41:04.904Z,2.78
2022-09-20T14:46:11.459Z,2.78
2022-09-20T14:51:19.943Z,2.78
2022-09-20T14:56:41.853Z,2.78
2022-09-20T15:01:49.919Z,2.78
2022-09-20T15:06:57.548Z,2.78
2022-09-20T15:12:04.882Z,2.78
2022-09-20T15:17:13.054Z,2.78
2022-09-20T15:22:19.823Z,2.78
2022-09-20T15:27:28.823Z,2.78
2022-09-20T15:32:36.352Z,2.77
2022-09-20T15:37:44.240Z,2.78
2022-09-20T15:42:51.372Z,2.78
2022-09-20T15:47:58.331Z,2.78
2022-09-20T15:53:05.464Z,2.78
2022-09-20T15:58:12.676Z,2.77
2022-09-20T16:03:20.655Z,2.77
2022-09-20T16:08:27.781Z,2.76
2022-09-20T16:13:34.973Z,2.76
2022-09-20T16:18:42.552Z,2.76
2022-09-20T16:23:50.603Z,2.75
2022-09-20T16:28:58.932Z,2.75
2022-09-20T16:34:06.854Z,2.74
2022-09-20T16:39:15.283Z,2.75
2022-09-20T16:45:01.764Z,2.74
2022-09-20T16:50:08.951Z,2.74
2022-09-20T16:55:16.153Z,2.74
2022-09-20T17:00:24.913Z,2.74
2022-09-20T17:05:31.838Z,2.74
2022-09-20T17:30:32.818Z,2.73
2022-09-20T17:35:37.917Z,2.73
2022-09-20T17:40:46.345Z,2.73
2022-09-20T17:45:53.543Z,2.73
2022-09-20T17:51:00.831Z,2.72
2022-09-20T17:56:09.149Z,2.72
2022-09-20T18:01:17.063Z,2.72
2022-09-20T18:06:25.590Z,2.72
2022-09-20T18:11:32.799Z,2.72
2022-09-20T18:16:40.574Z,2.72
2022-09-20T18:21:52.207Z,2.72
2022-09-20T18:27:00.884Z,2.72
2022-09-20T18:32:08.520Z,2.72
2022-09-20T18:37:16.660Z,2.72
2022-09-20T18:42:23.616Z,2.72
2022-09-20T18:47:32.629Z,2.72
2022-09-20T18:52:40.225Z,2.72
2022-09-20T18:57:47.140Z,2.72
2022-09-20T19:02:54.824Z,2.72
2022-09-20T19:08:02.128Z,2.72
2022-09-20T19:13:10.653Z,2.72
2022-09-20T19:18:18.436Z,2.72
2022-09-20T19:23:25.693Z,2.71
2022-09-20T19:28:32.892Z,2.72
2022-09-20T19:33:40.248Z,2.72
2022-09-20T19:38:48.155Z,2.71
2022-09-20T19:43:56.265Z,2.72
2022-09-20T19:49:03.618Z,2.71
2022-09-20T19:54:11.645Z,2.71
2022-09-20T19:59:18.027Z,2.72
2022-09-20T20:04:26.932Z,2.72
2022-09-20T20:09:35.365Z,2.72
2022-09-20T20:14:43.216Z,2.73
2022-09-20T20:19:51.314Z,2.72
2022-09-20T20:24:59.104Z,2.73
2022-09-20T20:30:05.703Z,2.72
2022-09-20T20:35:13.669Z,2.72
2022-09-20T20:40:21.381Z,2.72
2022-09-20T20:45:29.619Z,2.72
2022-09-20T20:50:36.467Z,2.72
2022-09-20T20:55:44.306Z,2.72
2022-09-20T21:00:52.022Z,2.72
2022-09-20T21:06:00.191Z,2.72
2022-09-20T21:11:08.290Z,2.71
2022-09-20T21:16:15.601Z,2.72
2022-09-20T21:21:24.632Z,2.72
2022-09-20T21:26:32.996Z,2.72
2022-09-20T21:31:41.265Z,2.72
2022-09-20T21:36:49.340Z,2.72
2022-09-20T21:41:57.485Z,2.72
2022-09-20T21:47:05.733Z,2.72
2022-09-20T21:52:13.908Z,2.72
2022-09-20T21:57:21.743Z,2.72
2022-09-20T22:02:33.268Z,2.71
2022-09-20T22:07:40.468Z,2.72
2022-09-20T22:12:48.097Z,2.72
2022-09-20T22:17:56.027Z,2.73
2022-09-20T22:23:04.130Z,2.72
2022-09-20T22:28:10.492Z,2.72
2022-09-20T22:33:20.023Z,2.72
2022-09-20T22:38:27.454Z,2.71
2022-09-20T22:43:35.286Z,2.72
2022-09-20T22:48:43.185Z,2.71
2022-09-20T22:53:50.414Z,2.72
2022-09-20T22:58:58.425Z,2.71
2022-09-20T23:04:06.131Z,2.72
2022-09-20T23:09:14.680Z,2.72
2022-09-20T23:14:22.885Z,2.72
2022-09-20T23:19:29.548Z,2.72
2022-09-20T23:24:37.419Z,2.72
2022-09-20T23:29:43.944Z,2.73
2022-09-20T23:34:51.735Z,2.73
2022-09-20T23:39:59.661Z,2.72
2022-09-20T23:45:07.657Z,2.72
2022-09-20T23:50:16.448Z,2.72
2022-09-20T23:55:24.924Z,2.72
